createdAt,value
2017-12-24T00:00:35.477Z,101094
2017-12-24T00:01:40.943Z,101102
2017-12-24T00:02:46.415Z,101094
2017-12-24T00:03:52.224Z,101099
2017-12-24T00:04:57.696Z,101094
2017-12-24T00:06:02.880Z,101085
2017-12-24T00:07:08.724Z,101085
2017-12-24T00:08:13.930Z,101085
2017-12-24T00:09:19.426Z,101085
2017-12-24T00:10:25.171Z,101077
2017-12-24T00:11:30.404Z,101085
2017-12-24T00:12:36.357Z,101082
2017-12-24T00:13:41.835Z,101085
2017-12-24T00:14:47.310Z,101088
2017-12-24T00:15:52.840Z,101079
2017-12-24T00:16:58.326Z,101082
2017-12-24T00:18:03.786Z,101077
2017-12-24T00:19:09.495Z,101088
2017-12-24T00:20:14.966Z,101088
2017-12-24T00:21:20.483Z,101082
2017-12-24T00:22:40.637Z,101077
2017-12-24T00:23:45.602Z,101091
2017-12-24T00:24:51.329Z,101091
2017-12-24T00:25:56.253Z,101080
2017-12-24T00:27:01.474Z,101074
2017-12-24T00:28:07.229Z,101077
2017-12-24T00:29:12.698Z,101080
2017-12-24T00:30:18.190Z,101068
2017-12-24T00:31:23.710Z,101071
2017-12-24T00:32:29.202Z,101065
2017-12-24T00:33:35.089Z,101059
2017-12-24T00:34:40.005Z,101065
2017-12-24T00:35:45.182Z,101053
2017-12-24T00:36:51.140Z,101048
2017-12-24T00:37:56.632Z,101062
2017-12-24T00:39:02.148Z,101053
2017-12-24T00:40:08.594Z,101051
2017-12-24T00:41:13.776Z,101053
2017-12-24T00:42:19.252Z,101056
2017-12-24T00:43:25.402Z,101059
2017-12-24T00:44:30.886Z,101053
2017-12-24T00:45:36.754Z,101039
2017-12-24T00:46:42.239Z,101053
2017-12-24T00:47:47.743Z,101051
2017-12-24T00:48:53.210Z,101051
2017-12-24T00:49:58.688Z,101051
2017-12-24T00:51:04.196Z,101053
2017-12-24T00:52:10.041Z,101048
2017-12-24T00:53:15.539Z,101045
2017-12-24T00:54:20.998Z,101042
2017-12-24T00:55:27.255Z,101042
2017-12-24T00:56:32.746Z,101042
2017-12-24T00:57:38.590Z,101030
2017-12-24T00:58:44.067Z,101039
2017-12-24T00:59:49.266Z,101045
2017-12-24T01:00:55.097Z,101039
2017-12-24T01:01:59.720Z,101042
2017-12-24T01:03:05.220Z,101036
2017-12-24T01:04:10.956Z,101027
2017-12-24T01:05:16.143Z,101042
2017-12-24T01:06:21.630Z,101033
2017-12-24T01:07:27.455Z,101033
2017-12-24T01:08:32.928Z,101036
2017-12-24T01:09:38.856Z,101036
2017-12-24T01:10:44.351Z,101024
2017-12-24T01:11:49.824Z,101030
2017-12-24T01:12:55.560Z,101039
2017-12-24T01:14:01.041Z,101042
2017-12-24T01:15:06.537Z,101042
2017-12-24T01:16:12.507Z,101024
2017-12-24T01:17:17.992Z,101039
2017-12-24T01:18:22.921Z,101042
2017-12-24T01:19:28.695Z,101045
2017-12-24T01:20:34.193Z,101045
2017-12-24T01:21:39.942Z,101051
2017-12-24T01:22:45.412Z,101048
2017-12-24T01:23:50.898Z,101048
2017-12-24T01:24:56.736Z,101048
2017-12-24T01:26:02.231Z,101045
2017-12-24T01:27:07.711Z,101051
2017-12-24T01:28:13.449Z,101042
2017-12-24T01:29:18.640Z,101048
2017-12-24T01:31:44.575Z,101039
2017-12-24T01:32:50.050Z,101039
2017-12-24T01:33:55.869Z,101039
2017-12-24T01:35:01.366Z,101042
2017-12-24T01:36:06.826Z,101051
2017-12-24T01:37:12.293Z,101042
2017-12-24T01:38:17.834Z,101048
2017-12-24T01:39:23.040Z,101048
2017-12-24T01:40:42.875Z,101053
2017-12-24T01:41:47.791Z,101050
2017-12-24T01:42:53.494Z,101059
2017-12-24T01:43:58.687Z,101056
2017-12-24T01:45:03.861Z,101050
2017-12-24T01:46:09.743Z,101053
2017-12-24T01:47:15.214Z,101048
2017-12-24T01:48:20.713Z,101050
2017-12-24T01:49:27.430Z,101053
2017-12-24T01:50:32.923Z,101056
2017-12-24T01:51:38.750Z,101048
2017-12-24T01:52:44.232Z,101048
2017-12-24T01:53:49.718Z,101053
2017-12-24T01:54:55.566Z,101056
2017-12-24T01:56:01.054Z,101051
2017-12-24T01:57:06.266Z,101053
2017-12-24T01:58:11.804Z,101056
2017-12-24T01:59:17.271Z,101051
2017-12-24T02:00:22.453Z,101062
2017-12-24T02:01:28.934Z,101056
2017-12-24T02:02:34.394Z,101059
2017-12-24T02:03:40.258Z,101045
2017-12-24T02:04:45.775Z,101059
2017-12-24T02:05:51.286Z,101059
2017-12-24T02:06:57.069Z,101056
2017-12-24T02:08:02.563Z,101056
2017-12-24T02:09:08.044Z,101048
2017-12-24T02:10:13.596Z,101048
2017-12-24T02:11:18.810Z,101056
2017-12-24T02:12:23.989Z,101065
2017-12-24T02:13:29.437Z,101053
2017-12-24T02:14:34.937Z,101050
2017-12-24T02:15:40.431Z,101059
2017-12-24T02:16:45.898Z,101071
2017-12-24T02:17:51.367Z,101059
2017-12-24T02:18:57.124Z,101065
2017-12-24T02:20:02.660Z,101059
2017-12-24T02:21:08.057Z,101056
2017-12-24T02:22:13.857Z,101056
2017-12-24T02:23:19.330Z,101065
2017-12-24T02:24:25.307Z,101068
2017-12-24T02:25:30.789Z,101059
2017-12-24T02:26:36.278Z,101074
2017-12-24T02:27:42.058Z,101068
2017-12-24T02:28:47.541Z,101059
2017-12-24T02:29:53.002Z,101050
2017-12-24T02:30:58.772Z,101056
2017-12-24T02:32:03.847Z,101053
2017-12-24T02:33:09.047Z,101053
2017-12-24T02:34:14.847Z,101059
2017-12-24T02:35:20.077Z,101059
2017-12-24T02:36:40.568Z,101048
2017-12-24T02:37:46.048Z,101054
2017-12-24T02:38:51.239Z,101053
2017-12-24T02:39:57.080Z,101056
2017-12-24T02:41:01.994Z,101056
2017-12-24T02:42:07.475Z,101068
2017-12-24T02:43:13.245Z,101039
2017-12-24T02:44:18.468Z,101036
2017-12-24T02:45:23.941Z,101062
2017-12-24T02:46:44.047Z,101056
2017-12-24T02:47:49.543Z,101056
2017-12-24T02:48:54.728Z,101051
2017-12-24T02:49:59.952Z,101053
2017-12-24T02:51:05.147Z,101051
2017-12-24T02:52:10.996Z,101053
2017-12-24T02:53:16.465Z,101056
2017-12-24T02:54:21.956Z,101048
2017-12-24T02:55:27.496Z,101056
2017-12-24T02:56:32.684Z,101045
2017-12-24T02:57:38.122Z,101045
2017-12-24T02:58:43.641Z,101045
2017-12-24T02:59:49.104Z,101053
2017-12-24T03:00:54.527Z,101045
2017-12-24T03:02:00.006Z,101053
2017-12-24T03:03:05.179Z,101045
2017-12-24T03:04:10.942Z,101042
2017-12-24T03:05:16.149Z,101045
2017-12-24T03:06:21.624Z,101051
2017-12-24T03:07:27.491Z,101045
2017-12-24T03:08:32.966Z,101039
2017-12-24T03:09:38.695Z,101039
2017-12-24T03:10:44.158Z,101036
2017-12-24T03:11:49.372Z,101042
2017-12-24T03:12:55.239Z,101042
2017-12-24T03:14:00.719Z,101048
2017-12-24T03:15:06.234Z,101039
2017-12-24T03:16:12.018Z,101039
2017-12-24T03:17:17.213Z,101045
2017-12-24T03:18:22.704Z,101039
2017-12-24T03:19:28.514Z,101027
2017-12-24T03:20:34.200Z,101033
2017-12-24T03:21:39.736Z,101030
2017-12-24T03:22:45.256Z,101033
2017-12-24T03:23:50.743Z,101024
2017-12-24T03:24:56.380Z,101016
2017-12-24T03:26:01.584Z,101027
2017-12-24T03:27:06.751Z,101022
2017-12-24T03:28:12.476Z,101022
2017-12-24T03:29:17.956Z,101033
2017-12-24T03:30:23.439Z,101019
2017-12-24T03:31:44.345Z,101030
2017-12-24T03:32:49.821Z,101013
2017-12-24T03:33:55.639Z,101013
2017-12-24T03:35:01.111Z,101001
2017-12-24T03:36:06.306Z,101007
2017-12-24T03:37:11.734Z,100995
2017-12-24T03:38:17.212Z,100995
2017-12-24T03:39:22.446Z,101004
2017-12-24T03:40:28.381Z,100998
2017-12-24T03:41:33.874Z,101001
2017-12-24T03:42:39.729Z,100992
2017-12-24T03:43:45.203Z,100990
2017-12-24T03:44:50.786Z,101001
2017-12-24T03:45:56.515Z,100995
2017-12-24T03:47:01.984Z,100995
2017-12-24T03:48:07.180Z,101007
2017-12-24T03:49:12.984Z,100992
2017-12-24T03:50:18.172Z,101007
2017-12-24T03:51:23.684Z,100998
2017-12-24T03:52:43.772Z,101004
2017-12-24T03:53:48.671Z,101004
2017-12-24T03:54:54.402Z,101004
2017-12-24T03:55:59.041Z,101004
2017-12-24T03:57:03.954Z,101001
2017-12-24T03:58:09.477Z,101010
2017-12-24T03:59:14.676Z,101016
2017-12-24T04:00:19.875Z,101010
2017-12-24T04:01:25.583Z,101007
2017-12-24T04:02:30.784Z,100995
2017-12-24T04:03:36.456Z,100995
2017-12-24T04:04:41.944Z,100995
2017-12-24T04:05:47.439Z,101004
2017-12-24T04:06:53.156Z,101001
2017-12-24T04:07:58.642Z,101001
2017-12-24T04:09:04.116Z,101001
2017-12-24T04:10:09.779Z,100998
2017-12-24T04:11:15.255Z,100992
2017-12-24T04:12:20.470Z,100990
2017-12-24T04:13:27.307Z,100998
2017-12-24T04:14:32.528Z,100990
2017-12-24T04:15:38.041Z,100995
2017-12-24T04:16:43.226Z,100989
2017-12-24T04:17:48.704Z,101001
2017-12-24T04:18:54.439Z,100992
2017-12-24T04:19:59.660Z,100990
2017-12-24T04:21:04.862Z,100987
2017-12-24T04:22:11.063Z,100992
2017-12-24T04:23:16.542Z,100982
2017-12-24T04:24:22.013Z,100995
2017-12-24T04:25:27.616Z,100998
2017-12-24T04:26:33.096Z,100995
2017-12-24T04:27:39.224Z,100998
2017-12-24T04:28:44.732Z,100987
2017-12-24T04:29:50.246Z,100990
2017-12-24T04:30:56.143Z,100982
2017-12-24T04:32:01.337Z,100992
2017-12-24T04:33:06.247Z,100990
2017-12-24T04:34:12.071Z,100990
2017-12-24T04:35:17.531Z,100992
2017-12-24T04:36:22.757Z,100985
2017-12-24T04:37:42.926Z,100985
2017-12-24T04:38:48.428Z,100985
2017-12-24T04:39:54.163Z,100982
2017-12-24T04:40:59.649Z,100979
2017-12-24T04:42:05.117Z,100982
2017-12-24T04:43:10.947Z,100970
2017-12-24T04:44:16.124Z,100976
2017-12-24T04:45:21.618Z,100973
2017-12-24T04:46:27.575Z,100970
2017-12-24T04:47:32.751Z,100964
2017-12-24T04:48:38.597Z,100967
2017-12-24T04:49:44.091Z,100970
2017-12-24T04:50:49.570Z,100967
2017-12-24T04:51:55.294Z,100962
2017-12-24T04:53:00.780Z,100964
2017-12-24T04:54:06.270Z,100967
2017-12-24T04:55:11.548Z,100970
2017-12-24T04:56:17.073Z,100973
2017-12-24T04:57:22.302Z,100970
2017-12-24T04:58:42.703Z,100962
2017-12-24T04:59:48.186Z,100964
2017-12-24T05:00:53.608Z,100965
2017-12-24T05:01:59.103Z,100962
2017-12-24T05:03:04.584Z,100973
2017-12-24T05:04:10.415Z,100956
2017-12-24T05:05:15.919Z,100967
2017-12-24T05:06:21.117Z,100956
2017-12-24T05:07:26.872Z,100956
2017-12-24T05:08:32.358Z,100967
2017-12-24T05:09:38.240Z,100962
2017-12-24T05:10:43.703Z,100973
2017-12-24T05:11:48.904Z,100967
2017-12-24T05:12:54.633Z,100953
2017-12-24T05:14:00.129Z,100964
2017-12-24T05:15:05.612Z,100964
2017-12-24T05:16:11.353Z,100964
2017-12-24T05:17:16.832Z,100959
2017-12-24T05:18:22.042Z,100962
2017-12-24T05:19:42.540Z,100962
2017-12-24T05:20:47.734Z,100956
2017-12-24T05:21:53.660Z,100959
2017-12-24T05:22:58.847Z,100950
2017-12-24T05:24:04.036Z,100950
2017-12-24T05:25:09.745Z,100970
2017-12-24T05:26:15.217Z,100956
2017-12-24T05:27:20.434Z,100950
2017-12-24T05:28:25.927Z,100959
2017-12-24T05:29:31.158Z,100953
2017-12-24T05:30:37.004Z,100950
2017-12-24T05:31:42.483Z,100950
2017-12-24T05:32:47.966Z,100956
2017-12-24T05:33:53.169Z,100959
2017-12-24T05:34:58.636Z,100947
2017-12-24T05:36:04.115Z,100956
2017-12-24T05:37:09.928Z,100959
2017-12-24T05:38:15.389Z,100953
2017-12-24T05:39:20.627Z,100938
2017-12-24T05:40:26.865Z,100938
2017-12-24T05:41:32.370Z,100944
2017-12-24T05:42:38.288Z,100947
2017-12-24T05:43:43.795Z,100941
2017-12-24T05:44:48.983Z,100944
2017-12-24T05:45:54.710Z,100947
2017-12-24T05:47:00.170Z,100930
2017-12-24T05:48:05.692Z,100932
2017-12-24T05:49:11.275Z,100950
2017-12-24T05:50:16.194Z,100938
2017-12-24T05:51:21.696Z,100930
2017-12-24T05:52:27.652Z,100935
2017-12-24T05:53:33.130Z,100927
2017-12-24T05:54:38.958Z,100933
2017-12-24T05:55:44.436Z,100918
2017-12-24T05:56:49.917Z,100924
2017-12-24T05:57:55.635Z,100921
2017-12-24T05:59:01.105Z,100927
2017-12-24T06:00:06.579Z,100909
2017-12-24T06:01:12.032Z,100915
2017-12-24T06:02:17.520Z,100918
2017-12-24T06:03:22.463Z,100921
2017-12-24T06:04:28.291Z,100918
2017-12-24T06:05:33.791Z,100930
2017-12-24T06:06:39.722Z,100906
2017-12-24T06:07:45.217Z,100912
2017-12-24T06:08:50.709Z,100918
2017-12-24T06:09:56.407Z,100918
2017-12-24T06:11:01.886Z,100912
2017-12-24T06:12:07.065Z,100918
2017-12-24T06:13:12.570Z,100918
2017-12-24T06:14:18.028Z,100915
2017-12-24T06:15:23.507Z,100912
2017-12-24T06:16:43.892Z,100912
2017-12-24T06:17:49.080Z,100912
2017-12-24T06:18:54.556Z,100909
2017-12-24T06:20:00.053Z,100915
2017-12-24T06:21:05.271Z,100912
2017-12-24T06:22:11.029Z,100921
2017-12-24T06:23:16.235Z,100898
2017-12-24T06:24:21.729Z,100921
2017-12-24T06:25:27.533Z,100915
2017-12-24T06:26:33.082Z,100912
2017-12-24T06:27:38.972Z,100912
2017-12-24T06:28:44.143Z,100915
2017-12-24T06:29:49.639Z,100915
2017-12-24T06:30:55.177Z,100898
2017-12-24T06:32:00.402Z,100906
2017-12-24T06:33:05.888Z,100912
2017-12-24T06:34:11.742Z,100915
2017-12-24T06:35:17.216Z,100906
2017-12-24T06:36:21.841Z,100912
2017-12-24T06:37:28.485Z,100906
2017-12-24T06:38:33.957Z,100909
2017-12-24T06:39:39.419Z,100898
2017-12-24T06:40:44.892Z,100903
2017-12-24T06:41:50.383Z,100912
2017-12-24T06:42:56.211Z,100901
2017-12-24T06:44:01.686Z,100898
2017-12-24T06:45:07.153Z,100898
2017-12-24T06:46:12.877Z,100898
2017-12-24T06:47:18.355Z,100892
2017-12-24T06:49:44.101Z,100898
2017-12-24T06:50:49.311Z,100883
2017-12-24T06:51:55.144Z,100895
2017-12-24T06:53:00.338Z,100886
2017-12-24T06:54:05.528Z,100889
2017-12-24T06:55:11.058Z,100880
2017-12-24T06:56:16.252Z,100886
2017-12-24T06:57:21.738Z,100886
2017-12-24T06:58:27.637Z,100886
2017-12-24T06:59:33.151Z,100886
2017-12-24T07:00:39.280Z,100886
2017-12-24T07:01:44.483Z,100886
2017-12-24T07:02:49.953Z,100874
2017-12-24T07:03:55.667Z,100880
2017-12-24T07:05:01.128Z,100869
2017-12-24T07:06:06.334Z,100874
2017-12-24T07:07:11.910Z,100880
2017-12-24T07:08:17.089Z,100877
2017-12-24T07:09:22.554Z,100886
2017-12-24T07:10:42.704Z,100872
2017-12-24T07:11:48.204Z,100880
2017-12-24T07:12:53.630Z,100877
2017-12-24T07:13:59.087Z,100883
2017-12-24T07:15:04.569Z,100877
2017-12-24T07:16:10.312Z,100875
2017-12-24T07:17:15.806Z,100886
2017-12-24T07:18:20.988Z,100883
2017-12-24T07:19:26.754Z,100880
2017-12-24T07:20:32.232Z,100877
2017-12-24T07:21:37.957Z,100889
2017-12-24T07:22:43.464Z,100877
2017-12-24T07:23:48.966Z,100889
2017-12-24T07:24:54.530Z,100877
2017-12-24T07:25:59.744Z,100877
2017-12-24T07:27:05.230Z,100889
2017-12-24T07:28:10.948Z,100886
2017-12-24T07:29:15.852Z,100886
2017-12-24T07:30:21.334Z,100883
2017-12-24T07:31:41.716Z,100883
2017-12-24T07:32:47.217Z,100886
2017-12-24T07:33:52.685Z,100883
2017-12-24T07:34:58.155Z,100872
2017-12-24T07:36:03.366Z,100889
2017-12-24T07:37:09.387Z,100875
2017-12-24T07:38:14.878Z,100889
2017-12-24T07:39:20.059Z,100875
2017-12-24T07:40:40.431Z,100875
2017-12-24T07:41:45.940Z,100877
2017-12-24T07:42:51.687Z,100877
2017-12-24T07:43:57.164Z,100874
2017-12-24T07:45:02.633Z,100880
2017-12-24T07:46:07.886Z,100886
2017-12-24T07:47:12.798Z,100877
2017-12-24T07:48:17.973Z,100880
2017-12-24T07:49:23.748Z,100869
2017-12-24T07:50:28.976Z,100877
2017-12-24T07:51:34.706Z,100880
2017-12-24T07:52:40.187Z,100874
2017-12-24T07:53:45.716Z,100886
2017-12-24T07:54:51.504Z,100883
2017-12-24T07:55:56.716Z,100872
2017-12-24T07:57:02.220Z,100880
2017-12-24T07:58:07.495Z,100874
2017-12-24T07:59:13.006Z,100877
2017-12-24T08:00:18.481Z,100880
2017-12-24T08:01:24.346Z,100869
2017-12-24T08:02:29.834Z,100889
2017-12-24T08:03:35.669Z,100880
2017-12-24T08:04:41.127Z,100886
2017-12-24T08:05:46.601Z,100877
2017-12-24T08:06:52.045Z,100883
2017-12-24T08:07:57.549Z,100874
2017-12-24T08:09:03.084Z,100883
2017-12-24T08:10:08.617Z,100880
2017-12-24T08:11:14.089Z,100877
2017-12-24T08:12:19.292Z,100883
2017-12-24T08:13:25.122Z,100883
2017-12-24T08:14:30.621Z,100886
2017-12-24T08:15:36.443Z,100886
2017-12-24T08:16:41.909Z,100880
2017-12-24T08:17:47.388Z,100883
2017-12-24T08:18:52.957Z,100883
2017-12-24T08:19:58.470Z,100895
2017-12-24T08:21:03.989Z,100883
2017-12-24T08:22:09.554Z,100886
2017-12-24T08:23:15.016Z,100898
2017-12-24T08:24:20.511Z,100892
2017-12-24T08:25:26.802Z,100880
2017-12-24T08:26:32.297Z,100877
2017-12-24T08:27:37.825Z,100880
2017-12-24T08:28:43.322Z,100892
2017-12-24T08:29:48.819Z,100889
2017-12-24T08:30:55.503Z,100883
2017-12-24T08:32:00.743Z,100880
2017-12-24T08:33:06.292Z,100872
2017-12-24T08:34:12.059Z,100874
2017-12-24T08:35:17.547Z,100880
2017-12-24T08:36:22.771Z,100874
2017-12-24T08:37:28.838Z,100883
2017-12-24T08:38:34.304Z,100880
2017-12-24T08:39:40.165Z,100874
2017-12-24T08:40:45.615Z,100877
2017-12-24T08:41:51.124Z,100877
2017-12-24T08:42:56.828Z,100886
2017-12-24T08:44:02.291Z,100877
2017-12-24T08:45:07.798Z,100878
2017-12-24T08:46:13.528Z,100880
2017-12-24T08:47:18.746Z,100883
2017-12-24T08:49:44.881Z,100880
2017-12-24T08:50:50.379Z,100875
2017-12-24T08:51:56.114Z,100886
2017-12-24T08:53:01.328Z,100889
2017-12-24T08:54:06.793Z,100889
2017-12-24T08:55:12.626Z,100889
2017-12-24T08:56:18.116Z,100884
2017-12-24T08:57:23.598Z,100889
2017-12-24T08:58:43.731Z,100887
2017-12-24T08:59:49.202Z,100889
2017-12-24T09:00:54.943Z,100878
2017-12-24T09:02:00.454Z,100892
2017-12-24T09:03:05.948Z,100889
2017-12-24T09:04:11.787Z,100892
2017-12-24T09:05:17.293Z,100886
2017-12-24T09:06:22.760Z,100892
2017-12-24T09:07:29.011Z,100887
2017-12-24T09:08:33.915Z,100887
2017-12-24T09:09:39.840Z,100890
2017-12-24T09:10:45.030Z,100887
2017-12-24T09:11:50.552Z,100887
2017-12-24T09:12:56.057Z,100884
2017-12-24T09:14:01.537Z,100884
2017-12-24T09:15:07.003Z,100887
2017-12-24T09:16:12.744Z,100895
2017-12-24T09:17:18.255Z,100895
2017-12-24T09:18:23.739Z,100878
2017-12-24T09:19:31.376Z,100884
2017-12-24T09:20:36.588Z,100893
2017-12-24T09:21:42.454Z,100881
2017-12-24T09:22:47.664Z,100884
2017-12-24T09:23:53.167Z,100875
2017-12-24T09:24:59.085Z,100881
2017-12-24T09:26:04.278Z,100878
2017-12-24T09:27:09.747Z,100878
2017-12-24T09:28:15.726Z,100875
2017-12-24T09:29:21.200Z,100875
2017-12-24T09:30:28.077Z,100875
2017-12-24T09:31:33.556Z,100872
2017-12-24T09:32:38.762Z,100857
2017-12-24T09:33:44.309Z,100869
2017-12-24T09:34:49.790Z,100863
2017-12-24T09:35:55.300Z,100869
2017-12-24T09:37:01.141Z,100860
2017-12-24T09:38:06.639Z,100857
2017-12-24T09:39:12.107Z,100860
2017-12-24T09:40:17.824Z,100869
2017-12-24T09:41:23.301Z,100863
2017-12-24T09:42:29.615Z,100849
2017-12-24T09:43:34.836Z,100863
2017-12-24T09:44:40.304Z,100860
2017-12-24T09:45:46.235Z,100855
2017-12-24T09:46:51.180Z,100855
2017-12-24T09:47:56.742Z,100860
2017-12-24T09:49:02.295Z,100852
2017-12-24T09:50:07.477Z,100854
2017-12-24T09:51:12.678Z,100857
2017-12-24T09:52:18.476Z,100855
2017-12-24T09:53:23.648Z,100857
2017-12-24T09:54:29.531Z,100849
2017-12-24T09:55:35.036Z,100849
2017-12-24T09:56:40.524Z,100849
2017-12-24T09:57:46.067Z,100846
2017-12-24T09:58:50.710Z,100854
2017-12-24T09:59:56.202Z,100852
2017-12-24T10:01:02.040Z,100846
2017-12-24T10:02:07.537Z,100849
2017-12-24T10:03:13.043Z,100844
2017-12-24T10:04:18.915Z,100832
2017-12-24T10:05:24.126Z,100835
2017-12-24T10:06:29.576Z,100852
2017-12-24T10:07:34.796Z,100838
2017-12-24T10:08:40.043Z,100832
2017-12-24T10:09:45.212Z,100829
2017-12-24T10:10:50.708Z,100829
2017-12-24T10:11:56.178Z,100835
2017-12-24T10:13:01.897Z,100826
2017-12-24T10:14:07.083Z,100826
2017-12-24T10:15:12.280Z,100832
2017-12-24T10:16:17.467Z,100820
2017-12-24T10:17:22.963Z,100820
2017-12-24T10:18:29.449Z,100820
2017-12-24T10:19:34.924Z,100832
2017-12-24T10:20:40.413Z,100826
2017-12-24T10:21:45.945Z,100820
2017-12-24T10:22:51.418Z,100829
2017-12-24T10:23:56.887Z,100835
2017-12-24T10:25:02.602Z,100818
2017-12-24T10:26:07.261Z,100823
2017-12-24T10:27:12.172Z,100815
2017-12-24T10:28:17.818Z,100826
2017-12-24T10:29:23.282Z,100820
2017-12-24T10:30:29.310Z,100820
2017-12-24T10:31:34.786Z,100817
2017-12-24T10:32:40.248Z,100820
2017-12-24T10:33:45.966Z,100815
2017-12-24T10:34:51.449Z,100817
2017-12-24T10:35:56.939Z,100829
2017-12-24T10:37:02.733Z,100829
2017-12-24T10:38:07.349Z,100829
2017-12-24T10:39:12.830Z,100820
2017-12-24T10:40:18.619Z,100832
2017-12-24T10:41:23.800Z,100803
2017-12-24T10:42:30.024Z,100823
2017-12-24T10:43:35.224Z,100812
2017-12-24T10:44:40.397Z,100815
2017-12-24T10:45:45.568Z,100815
2017-12-24T10:46:50.770Z,100817
2017-12-24T10:47:56.274Z,100815
2017-12-24T10:49:01.996Z,100820
2017-12-24T10:50:07.869Z,100809
2017-12-24T10:51:13.101Z,100823
2017-12-24T10:52:18.844Z,100817
2017-12-24T10:53:24.061Z,100823
2017-12-24T10:54:29.968Z,100823
2017-12-24T10:55:35.449Z,100812
2017-12-24T10:56:40.944Z,100820
2017-12-24T10:57:46.822Z,100806
2017-12-24T10:58:52.512Z,100815
2017-12-24T10:59:57.998Z,100823
2017-12-24T11:01:03.869Z,100817
2017-12-24T11:02:09.332Z,100803
2017-12-24T11:03:14.531Z,100815
2017-12-24T11:04:20.289Z,100812
2017-12-24T11:05:25.222Z,100817
2017-12-24T11:06:30.797Z,100817
2017-12-24T11:07:36.302Z,100806
2017-12-24T11:08:41.798Z,100806
2017-12-24T11:09:47.619Z,100809
2017-12-24T11:10:53.071Z,100817
2017-12-24T11:11:58.264Z,100812
2017-12-24T11:13:03.885Z,100806
2017-12-24T11:14:09.375Z,100806
2017-12-24T11:15:14.845Z,100812
2017-12-24T11:16:20.571Z,100817
2017-12-24T11:17:26.075Z,100803
2017-12-24T11:18:32.110Z,100803
2017-12-24T11:19:37.595Z,100806
2017-12-24T11:20:42.775Z,100795
2017-12-24T11:21:48.691Z,100809
2017-12-24T11:22:53.882Z,100797
2017-12-24T11:23:59.348Z,100795
2017-12-24T11:25:05.175Z,100800
2017-12-24T11:26:10.680Z,100786
2017-12-24T11:27:16.176Z,100789
2017-12-24T11:28:21.928Z,100795
2017-12-24T11:29:27.421Z,100781
2017-12-24T11:30:33.359Z,100781
2017-12-24T11:31:38.596Z,100784
2017-12-24T11:32:44.080Z,100784
2017-12-24T11:33:49.608Z,100784
2017-12-24T11:34:55.112Z,100789
2017-12-24T11:36:00.607Z,100795
2017-12-24T11:37:06.328Z,100784
2017-12-24T11:38:10.953Z,100784
2017-12-24T11:39:16.422Z,100784
2017-12-24T11:40:22.180Z,100772
2017-12-24T11:41:27.395Z,100769
2017-12-24T11:42:33.660Z,100775
2017-12-24T11:43:39.138Z,100775
2017-12-24T11:44:44.615Z,100766
2017-12-24T11:45:50.428Z,100769
2017-12-24T11:46:55.918Z,100775
2017-12-24T11:48:01.378Z,100766
2017-12-24T11:49:07.206Z,100763
2017-12-24T11:50:12.666Z,100760
2017-12-24T11:51:18.148Z,100757
2017-12-24T11:52:23.861Z,100757
2017-12-24T11:53:29.372Z,100757
2017-12-24T11:54:35.247Z,100757
2017-12-24T11:55:40.439Z,100754
2017-12-24T11:56:45.633Z,100746
2017-12-24T11:57:51.379Z,100749
2017-12-24T11:58:56.843Z,100755
2017-12-24T12:00:01.740Z,100752
2017-12-24T12:01:07.297Z,100746
2017-12-24T12:02:12.775Z,100740
2017-12-24T12:03:17.997Z,100743
2017-12-24T12:04:23.962Z,100746
2017-12-24T12:05:29.441Z,100749
2017-12-24T12:06:35.212Z,100754
2017-12-24T12:07:40.669Z,100746
2017-12-24T12:08:46.170Z,100746
2017-12-24T12:09:51.957Z,100746
2017-12-24T12:10:57.433Z,100749
2017-12-24T12:12:02.887Z,100743
2017-12-24T12:13:08.322Z,100752
2017-12-24T12:14:13.486Z,100754
2017-12-24T12:15:18.687Z,100749
2017-12-24T12:16:24.247Z,100749
2017-12-24T12:17:29.742Z,100749
2017-12-24T12:18:35.339Z,100746
2017-12-24T12:19:40.832Z,100749
2017-12-24T12:20:46.350Z,100749
2017-12-24T12:21:51.885Z,100749
2017-12-24T12:22:56.779Z,100740
2017-12-24T12:24:01.664Z,100734
2017-12-24T12:25:07.287Z,100746
2017-12-24T12:26:12.485Z,100743
2017-12-24T12:27:17.965Z,100737
2017-12-24T12:28:23.803Z,100725
2017-12-24T12:29:29.287Z,100734
2017-12-24T12:30:35.177Z,100723
2017-12-24T12:31:40.649Z,100717
2017-12-24T12:32:45.844Z,100717
2017-12-24T12:33:52.025Z,100714
2017-12-24T12:34:57.272Z,100699
2017-12-24T12:36:02.773Z,100705
2017-12-24T12:37:08.515Z,100699
2017-12-24T12:38:13.998Z,100696
2017-12-24T12:39:19.494Z,100696
2017-12-24T12:40:25.426Z,100696
2017-12-24T12:41:30.896Z,100691
2017-12-24T12:42:36.632Z,100691
2017-12-24T12:43:41.821Z,100691
2017-12-24T12:44:46.718Z,100691
2017-12-24T12:45:52.488Z,100693
2017-12-24T12:46:58.003Z,100685
2017-12-24T12:48:03.482Z,100699
2017-12-24T12:49:09.546Z,100685
2017-12-24T12:50:15.014Z,100693
2017-12-24T12:51:20.482Z,100705
2017-12-24T12:52:40.841Z,100691
2017-12-24T12:53:46.323Z,100691
2017-12-24T12:54:52.053Z,100688
2017-12-24T12:55:57.556Z,100696
2017-12-24T12:57:02.471Z,100696
2017-12-24T12:58:07.935Z,100691
2017-12-24T12:59:13.145Z,100691
2017-12-24T13:00:18.628Z,100688
2017-12-24T13:01:23.904Z,100676
2017-12-24T13:02:29.392Z,100685
2017-12-24T13:03:35.264Z,100691
2017-12-24T13:04:40.772Z,100676
2017-12-24T13:05:45.953Z,100682
2017-12-24T13:06:51.724Z,100673
2017-12-24T13:07:57.211Z,100667
2017-12-24T13:09:02.719Z,100664
2017-12-24T13:10:08.165Z,100670
2017-12-24T13:11:13.650Z,100664
2017-12-24T13:12:19.300Z,100670
2017-12-24T13:13:25.107Z,100676
2017-12-24T13:14:30.586Z,100667
2017-12-24T13:15:36.318Z,100664
2017-12-24T13:16:41.798Z,100670
2017-12-24T13:17:47.277Z,100664
2017-12-24T13:18:53.216Z,100662
2017-12-24T13:19:58.716Z,100667
2017-12-24T13:21:04.229Z,100670
2017-12-24T13:22:09.971Z,100670
2017-12-24T13:23:15.454Z,100662
2017-12-24T13:24:20.365Z,100676
2017-12-24T13:25:40.751Z,100667
2017-12-24T13:26:46.229Z,100662
2017-12-24T13:27:51.658Z,100667
2017-12-24T13:28:57.130Z,100659
2017-12-24T13:30:02.621Z,100656
2017-12-24T13:31:08.056Z,100662
2017-12-24T13:32:13.537Z,100656
2017-12-24T13:33:18.714Z,100656
2017-12-24T13:34:24.355Z,100662
2017-12-24T13:35:29.561Z,100654
2017-12-24T13:36:35.451Z,100659
2017-12-24T13:37:40.934Z,100659
2017-12-24T13:38:46.415Z,100656
2017-12-24T13:39:51.873Z,100656
2017-12-24T13:40:57.363Z,100656
2017-12-24T13:42:02.561Z,100651
2017-12-24T13:43:08.005Z,100654
2017-12-24T13:44:13.485Z,100659
2017-12-24T13:45:18.969Z,100654